Time;durP1;ratioP1;P1;durP2;ratioP2;P2;SDS_P1;SDS_P2;PMS_P1;PMS_P2;Temp;Humidity;BMP_temperature;BMP_pressure;BME280_temperature;BME280_humidity;BME280_pressure;Samples;Min_cycle;Max_cycle;Signal;HPM_P1;HPM_P2
2021/01/10 00:01:33;;;;;;;16.00;10.00;;;1.00;99.90;;;;;;5002269;28;20948;-47
2021/01/10 00:03:58;;;;;;;15.40;9.73;;;1.10;99.90;;;;;;5000757;28;20254;-52
2021/01/10 00:06:24;;;;;;;19.80;10.87;;;1.10;99.90;;;;;;5006605;28;20192;-47
2021/01/10 00:08:49;;;;;;;22.13;10.47;;;1.10;99.90;;;;;;5011661;28;20251;-47
2021/01/10 00:11:15;;;;;;;16.97;9.60;;;1.10;99.90;;;;;;5004006;28;20224;-52
2021/01/10 00:13:40;;;;;;;19.10;10.63;;;1.10;99.90;;;;;;5011479;28;20196;-47
2021/01/10 00:16:06;;;;;;;19.83;10.47;;;1.10;99.90;;;;;;4999990;28;20672;-49
2021/01/10 00:18:31;;;;;;;18.20;9.97;;;1.10;99.90;;;;;;5001188;28;20195;-46
2021/01/10 00:20:56;;;;;;;17.67;10.30;;;1.10;99.90;;;;;;4998187;28;20274;-51
2021/01/10 00:23:22;;;;;;;18.17;11.37;;;1.00;99.90;;;;;;5007649;28;20183;-49
2021/01/10 00:25:47;;;;;;;17.63;9.57;;;0.90;99.90;;;;;;5003315;28;20172;-45
2021/01/10 00:28:13;;;;;;;19.43;11.33;;;0.90;99.90;;;;;;4999524;28;20175;-52
2021/01/10 00:30:38;;;;;;;19.43;11.27;;;1.00;99.90;;;;;;5002822;28;20184;-46
2021/01/10 00:33:04;;;;;;;19.50;10.67;;;1.00;99.90;;;;;;5001466;28;20263;-50
2021/01/10 00:35:29;;;;;;;19.13;9.90;;;0.90;99.90;;;;;;4993677;28;20939;-46
2021/01/10 00:37:56;;;;;;;19.90;11.57;;;0.90;99.90;;;;;;5013580;28;20209;-49
2021/01/10 00:40:23;;;;;;;20.70;11.70;;;0.90;99.90;;;;;;5010739;28;20157;-49
2021/01/10 00:42:49;;;;;;;18.97;10.90;;;0.90;99.90;;;;;;5022887;28;20211;-46
2021/01/10 00:45:17;;;;;;;25.20;12.53;;;0.90;99.90;;;;;;5018752;28;20176;-50
2021/01/10 00:47:42;;;;;;;21.93;12.53;;;0.90;99.90;;;;;;5025780;28;20195;-47
2021/01/10 00:50:09;;;;;;;22.23;11.80;;;0.90;99.90;;;;;;5023704;28;20309;-50
2021/01/10 00:52:35;;;;;;;25.60;12.37;;;0.80;99.90;;;;;;5033319;28;20203;-47
2021/01/10 00:55:01;;;;;;;20.30;10.87;;;0.80;99.90;;;;;;5034356;28;20218;-48
2021/01/10 00:57:26;;;;;;;23.17;11.83;;;0.70;99.90;;;;;;5017590;28;20195;-49
2021/01/10 00:59:52;;;;;;;20.90;11.03;;;0.70;99.90;;;;;;5017660;28;20176;-49
2021/01/10 01:02:17;;;;;;;18.13;10.83;;;0.60;99.90;;;;;;5002552;28;20989;-47
2021/01/10 01:04:45;;;;;;;17.70;9.87;;;0.60;99.90;;;;;;5006499;28;20188;-47
2021/01/10 01:07:11;;;;;;;17.87;10.03;;;0.60;99.90;;;;;;5004993;28;20175;-51
2021/01/10 01:09:36;;;;;;;17.23;10.07;;;0.50;99.90;;;;;;5021708;28;20678;-49
2021/01/10 01:12:04;;;;;;;22.57;10.67;;;0.50;99.90;;;;;;5010403;28;20266;-50
2021/01/10 01:14:29;;;;;;;18.60;9.97;;;0.50;99.90;;;;;;5013691;28;20186;-47
2021/01/10 01:16:55;;;;;;;20.90;10.27;;;0.50;99.90;;;;;;5022660;28;20208;-52
2021/01/10 01:19:21;;;;;;;18.77;10.13;;;0.40;99.90;;;;;;5022053;28;20163;-47
2021/01/10 01:21:51;;;;;;;19.67;10.47;;;0.40;99.90;;;;;;5025818;28;20198;-49
2021/01/10 01:24:19;;;;;;;19.83;11.60;;;0.40;99.90;;;;;;5021748;28;20171;-46
2021/01/10 01:26:45;;;;;;;22.10;11.33;;;0.50;99.90;;;;;;5025605;28;20179;-49
2021/01/10 01:29:10;;;;;;;18.00;10.17;;;0.50;99.90;;;;;;5010286;28;20202;-50
2021/01/10 01:31:36;;;;;;;20.90;11.10;;;0.40;99.90;;;;;;5016850;28;20207;-46
2021/01/10 01:34:01;;;;;;;20.93;11.00;;;0.40;99.90;;;;;;5024119;28;20265;-50
2021/01/10 01:36:30;;;;;;;17.57;10.07;;;0.40;99.90;;;;;;5023215;28;20205;-46
2021/01/10 01:38:57;;;;;;;19.40;11.03;;;0.40;99.90;;;;;;5023390;28;20268;-49
2021/01/10 01:41:23;;;;;;;18.80;10.57;;;0.30;99.90;;;;;;5014550;28;20913;-48
2021/01/10 01:43:50;;;;;;;18.07;10.50;;;0.30;99.90;;;;;;5013515;28;20191;-46
2021/01/10 01:46:28;;;;;;;19.07;10.47;;;0.20;99.90;;;;;;5013148;28;20180;-47
2021/01/10 01:48:54;;;;;;;19.87;10.67;;;0.20;99.90;;;;;;5025067;28;20202;-50
2021/01/10 01:51:20;;;;;;;22.23;12.57;;;0.20;99.90;;;;;;5021545;28;20194;-48
2021/01/10 01:53:47;;;;;;;20.00;11.17;;;0.20;99.90;;;;;;5024669;28;20241;-49
2021/01/10 01:56:12;;;;;;;20.20;10.67;;;0.20;99.90;;;;;;5021422;28;20210;-52
2021/01/10 01:59:02;;;;;;;21.77;11.87;;;0.20;99.90;;;;;;5024580;28;20257;-50
2021/01/10 02:01:30;;;;;;;18.37;10.80;;;0.20;99.90;;;;;;5008582;28;20362;-47
2021/01/10 02:04:01;;;;;;;21.97;12.17;;;0.20;99.90;;;;;;5007766;28;20206;-53
2021/01/10 02:06:31;;;;;;;21.07;11.50;;;0.30;99.90;;;;;;5012151;28;20206;-48
2021/01/10 02:09:03;;;;;;;19.93;12.47;;;0.30;99.90;;;;;;5015352;28;20205;-50
2021/01/10 02:11:32;;;;;;;20.33;11.60;;;0.30;99.90;;;;;;5022976;28;20272;-47
2021/01/10 02:14:02;;;;;;;18.97;11.63;;;0.20;99.90;;;;;;5021655;28;20194;-54
2021/01/10 02:16:28;;;;;;;21.23;11.97;;;0.20;99.90;;;;;;5011827;28;20211;-47
2021/01/10 02:18:53;;;;;;;24.73;13.23;;;0.20;99.90;;;;;;5008728;28;20183;-48
2021/01/10 02:21:20;;;;;;;21.20;12.57;;;0.20;99.90;;;;;;5007798;28;20217;-48
2021/01/10 02:23:46;;;;;;;25.90;13.70;;;0.20;99.90;;;;;;5020479;28;20165;-46
2021/01/10 02:26:12;;;;;;;19.40;11.37;;;0.20;99.90;;;;;;5023684;28;20179;-47
2021/01/10 02:28:38;;;;;;;23.03;12.00;;;0.10;99.90;;;;;;5020526;28;20183;-49
2021/01/10 02:31:05;;;;;;;22.10;11.83;;;0.20;99.90;;;;;;5010605;28;20221;-47
2021/01/10 02:33:48;;;;;;;21.23;11.40;;;0.10;99.90;;;;;;5015218;28;20250;-52
2021/01/10 02:36:23;;;;;;;19.17;10.77;;;0.10;99.90;;;;;;5024635;28;20253;-47
2021/01/10 02:38:54;;;;;;;21.70;12.40;;;0.10;99.90;;;;;;5020338;28;20185;-52
2021/01/10 02:41:57;;;;;;;22.03;12.17;;;0.10;99.90;;;;;;5015933;28;20203;-53
2021/01/10 02:44:49;;;;;;;24.27;13.33;;;0.20;99.90;;;;;;5019823;28;20183;-51
2021/01/10 02:47:14;;;;;;;19.90;12.27;;;0.20;99.90;;;;;;5015635;28;20269;-46
2021/01/10 02:49:40;;;;;;;23.33;12.20;;;0.20;99.90;;;;;;5012248;28;20222;-47
2021/01/10 02:52:05;;;;;;;20.27;12.30;;;0.20;99.90;;;;;;5022659;28;20209;-47
2021/01/10 02:54:31;;;;;;;24.47;12.90;;;0.20;99.90;;;;;;5021470;28;20574;-50
2021/01/10 02:57:09;;;;;;;20.87;12.30;;;0.30;99.90;;;;;;5022709;28;20203;-47
2021/01/10 02:59:38;;;;;;;23.60;13.27;;;0.20;99.90;;;;;;5020262;28;20182;-51
2021/01/10 03:02:05;;;;;;;22.67;12.40;;;0.30;99.90;;;;;;5003786;28;20211;-49
2021/01/10 03:04:31;;;;;;;19.83;12.47;;;0.30;99.90;;;;;;5007838;28;20723;-51
2021/01/10 03:06:58;;;;;;;20.77;11.93;;;0.30;99.90;;;;;;5003056;28;20168;-47
2021/01/10 03:09:24;;;;;;;20.87;12.90;;;0.30;99.90;;;;;;5002199;28;20619;-50
2021/01/10 03:11:52;;;;;;;23.47;12.37;;;0.20;99.90;;;;;;5001381;28;20207;-47
2021/01/10 03:14:17;;;;;;;18.57;10.93;;;0.30;99.90;;;;;;5003708;28;20250;-51
2021/01/10 03:16:43;;;;;;;21.50;11.13;;;0.30;99.90;;;;;;4991382;28;21118;-49
2021/01/10 03:19:09;;;;;;;18.83;11.10;;;0.30;99.90;;;;;;5021143;28;20185;-47
2021/01/10 03:21:34;;;;;;;22.70;12.77;;;0.20;99.90;;;;;;5014273;28;20248;-51
2021/01/10 03:24:00;;;;;;;21.10;11.37;;;0.20;99.90;;;;;;5023378;28;20176;-47
2021/01/10 03:26:27;;;;;;;20.50;11.87;;;0.20;99.90;;;;;;5021976;28;20841;-50
2021/01/10 03:28:52;;;;;;;20.53;11.17;;;0.10;99.90;;;;;;5021307;28;20179;-49
2021/01/10 03:31:18;;;;;;;22.07;11.60;;;0.20;99.90;;;;;;5023326;28;20618;-50
2021/01/10 03:33:46;;;;;;;20.67;11.77;;;0.20;99.90;;;;;;5007805;28;20184;-47
2021/01/10 03:36:16;;;;;;;21.13;12.20;;;0.20;99.90;;;;;;5015366;28;20205;-47
2021/01/10 03:38:42;;;;;;;20.93;11.90;;;0.20;99.90;;;;;;5019236;28;20805;-47
2021/01/10 03:41:11;;;;;;;21.93;13.10;;;0.20;99.90;;;;;;5023474;28;20175;-47
2021/01/10 03:43:38;;;;;;;24.27;12.57;;;0.20;99.90;;;;;;5019666;28;20830;-52
2021/01/10 03:46:04;;;;;;;21.73;12.73;;;0.30;99.90;;;;;;5023611;28;20186;-48
2021/01/10 03:48:34;;;;;;;21.10;11.80;;;0.30;99.90;;;;;;5013284;28;20239;-50
2021/01/10 03:51:00;;;;;;;23.63;13.13;;;0.30;99.90;;;;;;5012721;28;20195;-47
2021/01/10 03:53:26;;;;;;;23.17;11.53;;;0.30;99.90;;;;;;5021524;28;20234;-51
2021/01/10 03:55:51;;;;;;;22.80;12.53;;;0.30;99.90;;;;;;5021076;28;20192;-48
2021/01/10 03:58:17;;;;;;;22.87;12.70;;;0.30;99.90;;;;;;5023609;28;20186;-51
2021/01/10 04:00:42;;;;;;;21.47;11.97;;;0.30;99.90;;;;;;5019073;28;20830;-48
2021/01/10 04:03:08;;;;;;;23.53;12.73;;;0.40;99.90;;;;;;5023275;28;20190;-47
2021/01/10 04:05:33;;;;;;;21.80;12.63;;;0.40;99.90;;;;;;5007797;28;20190;-49
2021/01/10 04:07:59;;;;;;;19.60;11.80;;;0.40;99.90;;;;;;5014432;28;20302;-47
2021/01/10 04:10:24;;;;;;;24.47;12.93;;;0.40;99.90;;;;;;5021573;28;20186;-53
2021/01/10 04:12:50;;;;;;;25.50;13.37;;;0.40;99.90;;;;;;5020663;28;20330;-47
2021/01/10 04:15:15;;;;;;;21.20;11.53;;;0.40;99.90;;;;;;5023132;28;20580;-47
2021/01/10 04:17:41;;;;;;;24.03;12.33;;;0.40;99.90;;;;;;5019289;28;20194;-47
2021/01/10 04:20:06;;;;;;;20.50;12.63;;;0.40;99.90;;;;;;5008334;28;20215;-47
2021/01/10 04:22:32;;;;;;;22.57;13.37;;;0.40;99.90;;;;;;5015755;28;20202;-52
2021/01/10 04:24:57;;;;;;;23.27;13.27;;;0.40;99.90;;;;;;5025537;28;20189;-47
2021/01/10 04:27:23;;;;;;;24.07;12.93;;;0.40;99.90;;;;;;5015470;28;20198;-52
2021/01/10 04:29:48;;;;;;;25.13;13.03;;;0.50;99.90;;;;;;5010922;28;20948;-47
2021/01/10 04:32:14;;;;;;;22.90;12.67;;;0.40;99.90;;;;;;5006104;28;20206;-47
2021/01/10 04:34:40;;;;;;;22.47;12.93;;;0.50;99.90;;;;;;5001485;28;20161;-48
2021/01/10 04:37:05;;;;;;;22.87;12.97;;;0.50;99.90;;;;;;5007543;28;20205;-48
2021/01/10 04:39:31;;;;;;;24.27;12.43;;;0.50;99.90;;;;;;5016862;28;20241;-51
2021/01/10 04:41:58;;;;;;;23.80;12.43;;;0.40;99.90;;;;;;5022327;28;20199;-52
2021/01/10 04:44:23;;;;;;;25.13;13.20;;;0.40;99.90;;;;;;5025364;28;20586;-50
2021/01/10 04:46:50;;;;;;;24.97;13.80;;;0.40;99.90;;;;;;5024052;28;20225;-49
2021/01/10 04:49:15;;;;;;;24.27;12.90;;;0.40;99.90;;;;;;5026254;28;20183;-48
2021/01/10 04:51:42;;;;;;;23.77;13.40;;;0.40;99.90;;;;;;5008061;28;20954;-47
2021/01/10 04:54:07;;;;;;;25.40;13.17;;;0.40;99.90;;;;;;5017242;28;20183;-48
2021/01/10 04:56:35;;;;;;;24.73;13.20;;;0.40;99.90;;;;;;5023243;28;20549;-53
2021/01/10 04:59:03;;;;;;;27.30;14.70;;;0.40;99.90;;;;;;5025984;28;20219;-48
2021/01/10 05:01:45;;;;;;;26.20;13.93;;;0.40;99.90;;;;;;5015203;28;20793;-52
2021/01/10 05:04:11;;;;;;;25.67;13.07;;;0.30;99.90;;;;;;5025721;28;20267;-52
2021/01/10 05:06:37;;;;;;;24.57;12.97;;;0.20;99.90;;;;;;5010756;28;20306;-48
2021/01/10 05:09:06;;;;;;;32.93;15.70;;;0.20;99.90;;;;;;5017619;28;20170;-48
2021/01/10 05:11:33;;;;;;;28.27;14.73;;;0.30;99.90;;;;;;5022066;28;20193;-52
2021/01/10 05:13:58;;;;;;;25.53;14.13;;;0.30;99.90;;;;;;5026382;28;20267;-48
2021/01/10 05:16:29;;;;;;;27.10;14.30;;;0.30;99.90;;;;;;5023113;28;20300;-50
2021/01/10 05:18:55;;;;;;;26.43;14.17;;;0.30;99.90;;;;;;5024630;28;20188;-49
2021/01/10 05:21:21;;;;;;;26.47;13.63;;;0.30;99.90;;;;;;5003524;28;20250;-51
2021/01/10 05:23:57;;;;;;;30.90;15.27;;;0.30;99.90;;;;;;5001535;28;20178;-46
2021/01/10 05:26:31;;;;;;;30.23;15.27;;;0.30;99.90;;;;;;5015455;28;20674;-50
2021/01/10 05:29:03;;;;;;;26.97;14.57;;;0.20;99.90;;;;;;5025762;28;20172;-47
2021/01/10 05:31:33;;;;;;;27.60;15.23;;;0.20;99.90;;;;;;5021684;28;20192;-52
2021/01/10 05:33:59;;;;;;;30.50;15.13;;;0.20;99.90;;;;;;5025024;28;20191;-48
2021/01/10 05:36:27;;;;;;;30.70;15.77;;;0.20;99.90;;;;;;5022661;28;20778;-52
2021/01/10 05:38:53;;;;;;;31.17;16.17;;;0.20;99.90;;;;;;5012911;28;20194;-48
2021/01/10 05:41:20;;;;;;;31.73;15.83;;;0.20;99.90;;;;;;5012133;28;20845;-51
2021/01/10 05:44:00;;;;;;;30.80;15.07;;;0.10;99.90;;;;;;5004098;28;20798;-49
2021/01/10 05:46:28;;;;;;;32.23;14.97;;;0.10;99.90;;;;;;5002449;28;20182;-52
2021/01/10 05:48:54;;;;;;;35.33;16.23;;;0.10;99.90;;;;;;5005283;28;20241;-47
2021/01/10 05:51:20;;;;;;;34.27;15.60;;;0.10;99.90;;;;;;5004002;28;20214;-51
2021/01/10 05:53:46;;;;;;;34.57;15.57;;;0.20;99.90;;;;;;5015746;28;20190;-50
2021/01/10 05:56:11;;;;;;;30.73;14.77;;;0.20;99.90;;;;;;5005043;28;20260;-50
2021/01/10 05:58:38;;;;;;;28.10;15.27;;;0.20;99.90;;;;;;5016009;28;20167;-50
2021/01/10 06:01:11;;;;;;;32.83;15.00;;;0.20;99.90;;;;;;5018836;28;20222;-53
2021/01/10 06:03:37;;;;;;;31.93;14.47;;;0.20;99.90;;;;;;5020644;28;20226;-47
2021/01/10 06:06:04;;;;;;;30.33;14.77;;;0.20;99.90;;;;;;5022201;28;20179;-49
2021/01/10 06:08:35;;;;;;;29.27;15.53;;;0.30;99.90;;;;;;5018461;28;20285;-48
2021/01/10 06:11:15;;;;;;;31.13;15.23;;;0.30;99.90;;;;;;5004946;28;20194;-48
2021/01/10 06:13:49;;;;;;;33.37;16.00;;;0.20;99.90;;;;;;5016292;28;20192;-50
2021/01/10 06:16:16;;;;;;;31.47;15.83;;;0.20;99.90;;;;;;5020886;28;20194;-49
2021/01/10 06:18:45;;;;;;;40.40;16.57;;;0.30;99.90;;;;;;5024752;28;20261;-49
2021/01/10 06:21:18;;;;;;;33.70;15.77;;;0.20;99.90;;;;;;5018647;28;20258;-53
2021/01/10 06:23:46;;;;;;;28.00;14.70;;;0.30;99.90;;;;;;5024501;28;20187;-49
2021/01/10 06:26:13;;;;;;;32.00;15.53;;;0.30;99.90;;;;;;4998002;28;20207;-51
2021/01/10 06:28:42;;;;;;;38.10;15.80;;;0.30;99.90;;;;;;5013122;28;20183;-47
2021/01/10 06:31:08;;;;;;;34.00;15.27;;;0.30;99.90;;;;;;5002122;28;20187;-52
2021/01/10 06:33:34;;;;;;;32.80;15.13;;;0.40;99.90;;;;;;5003850;28;20175;-47
2021/01/10 06:36:07;;;;;;;30.30;15.10;;;0.40;99.90;;;;;;5003571;28;20258;-53
2021/01/10 06:38:37;;;;;;;29.13;15.67;;;0.40;99.90;;;;;;5020458;28;20955;-46
2021/01/10 06:41:25;;;;;;;30.90;14.47;;;0.30;99.90;;;;;;5008204;28;20177;-50
2021/01/10 06:43:57;;;;;;;30.93;15.57;;;0.30;99.90;;;;;;5001720;28;20653;-52
2021/01/10 06:46:24;;;;;;;30.67;15.57;;;0.30;99.90;;;;;;4996599;28;20211;-47
2021/01/10 06:48:49;;;;;;;28.20;14.57;;;0.40;99.90;;;;;;5005788;28;20219;-48
2021/01/10 06:51:16;;;;;;;28.57;14.40;;;0.40;99.90;;;;;;5023440;28;20640;-48
2021/01/10 06:53:41;;;;;;;28.93;14.33;;;0.40;99.90;;;;;;5018507;28;20341;-51
2021/01/10 06:56:07;;;;;;;34.70;15.20;;;0.40;99.90;;;;;;5022055;28;20282;-46
2021/01/10 06:58:33;;;;;;;29.53;15.63;;;0.40;99.90;;;;;;4995665;28;20187;-46
2021/01/10 07:01:01;;;;;;;32.63;14.80;;;0.40;99.90;;;;;;5020519;28;20181;-51
2021/01/10 07:03:28;;;;;;;32.80;14.33;;;0.40;99.90;;;;;;5020901;28;20256;-45
2021/01/10 07:05:56;;;;;;;29.50;13.90;;;0.50;99.90;;;;;;5024323;28;20167;-47
2021/01/10 07:08:52;;;;;;;31.33;15.43;;;0.50;99.90;;;;;;5015037;28;20814;-47
2021/01/10 07:11:23;;;;;;;25.13;13.90;;;0.50;99.90;;;;;;5011625;28;20163;-47
2021/01/10 07:14:11;;;;;;;26.13;13.63;;;0.50;99.90;;;;;;5005157;28;20221;-47
2021/01/10 07:16:38;;;;;;;25.33;13.53;;;0.50;99.90;;;;;;5017191;28;20539;-47
2021/01/10 07:19:06;;;;;;;28.87;13.37;;;0.50;99.90;;;;;;5022207;28;20178;-49
2021/01/10 07:21:45;;;;;;;25.60;14.07;;;0.50;99.90;;;;;;5022049;28;20221;-46
2021/01/10 07:24:28;;;;;;;28.47;13.93;;;0.60;99.90;;;;;;5016856;28;20185;-48
2021/01/10 07:27:00;;;;;;;29.73;13.80;;;0.60;99.90;;;;;;5023933;28;20174;-46
2021/01/10 07:29:34;;;;;;;25.03;13.10;;;0.60;99.90;;;;;;4997234;28;20198;-46
2021/01/10 07:32:03;;;;;;;30.17;13.93;;;0.60;99.90;;;;;;5005779;28;20207;-52
2021/01/10 07:34:30;;;;;;;25.80;12.90;;;0.60;99.90;;;;;;5001466;28;20895;-49
2021/01/10 07:37:01;;;;;;;32.03;14.33;;;0.60;99.90;;;;;;5003865;28;20218;-48
2021/01/10 07:39:29;;;;;;;30.47;13.70;;;0.70;99.90;;;;;;5009153;28;20647;-46
2021/01/10 07:42:12;;;;;;;32.50;14.83;;;0.60;99.90;;;;;;5020272;28;20564;-46
2021/01/10 07:44:54;;;;;;;26.20;12.47;;;0.70;99.90;;;;;;5012364;28;20187;-46
2021/01/10 07:47:32;;;;;;;24.43;12.93;;;0.70;99.90;;;;;;5013629;28;20194;-47
2021/01/10 07:50:02;;;;;;;26.13;12.57;;;0.70;99.90;;;;;;5023313;28;20670;-49
2021/01/10 07:52:42;;;;;;;26.30;12.77;;;0.70;99.90;;;;;;5019227;28;20199;-46
2021/01/10 07:55:23;;;;;;;24.70;12.87;;;0.80;99.90;;;;;;5017383;28;20217;-51
2021/01/10 07:57:50;;;;;;;28.40;12.77;;;0.80;99.90;;;;;;5027325;28;20695;-46
2021/01/10 08:00:43;;;;;;;22.27;11.37;;;0.80;99.90;;;;;;5002461;28;20194;-51
2021/01/10 08:03:17;;;;;;;26.50;11.90;;;0.80;99.90;;;;;;5016578;28;20294;-52
2021/01/10 08:06:00;;;;;;;24.73;12.40;;;0.80;99.90;;;;;;5027677;28;20176;-47
2021/01/10 08:08:46;;;;;;;23.80;11.40;;;0.90;99.90;;;;;;5020221;28;20278;-47
2021/01/10 08:11:28;;;;;;;28.47;12.20;;;0.80;99.90;;;;;;5015929;28;20226;-50
2021/01/10 08:13:54;;;;;;;25.07;11.90;;;0.90;99.90;;;;;;5007281;28;20194;-49
2021/01/10 08:16:25;;;;;;;23.60;11.60;;;0.90;99.90;;;;;;5011502;28;20209;-47
2021/01/10 08:18:52;;;;;;;23.93;11.97;;;0.90;99.90;;;;;;5021909;28;20536;-47
2021/01/10 08:21:18;;;;;;;22.63;11.50;;;0.90;99.90;;;;;;5023239;28;20183;-47
2021/01/10 08:23:46;;;;;;;25.10;12.10;;;0.90;99.90;;;;;;5023192;28;20185;-46
2021/01/10 08:26:16;;;;;;;22.20;11.43;;;1.00;99.90;;;;;;5024149;28;20604;-51
2021/01/10 08:28:46;;;;;;;24.83;11.37;;;1.00;99.90;;;;;;5026417;28;20236;-46
2021/01/10 08:31:15;;;;;;;18.47;10.87;;;1.00;99.90;;;;;;5002914;28;20215;-53
2021/01/10 08:33:42;;;;;;;22.53;12.10;;;1.10;99.90;;;;;;5015095;28;20249;-49
2021/01/10 08:36:12;;;;;;;25.27;12.60;;;1.10;99.90;;;;;;5022481;28;20210;-49
2021/01/10 08:38:48;;;;;;;22.70;11.70;;;1.10;99.90;;;;;;5021208;28;20176;-51
2021/01/10 08:41:41;;;;;;;22.80;11.27;;;1.20;99.90;;;;;;5017896;28;20202;-47
2021/01/10 08:44:12;;;;;;;22.00;11.53;;;1.20;99.90;;;;;;5007612;28;20226;-47
2021/01/10 08:46:40;;;;;;;21.53;11.53;;;1.20;99.90;;;;;;5012536;28;20196;-47
2021/01/10 08:49:05;;;;;;;23.13;11.67;;;1.30;99.90;;;;;;5012253;28;20213;-51
2021/01/10 08:51:39;;;;;;;21.93;11.07;;;1.30;99.90;;;;;;5012519;28;20963;-47
2021/01/10 08:54:09;;;;;;;23.43;10.73;;;1.30;99.90;;;;;;5013558;28;20200;-51
2021/01/10 08:56:36;;;;;;;20.40;11.13;;;1.40;99.90;;;;;;5015483;28;20214;-49
2021/01/10 08:59:02;;;;;;;21.93;9.80;;;1.40;99.90;;;;;;5020135;28;20184;-49
2021/01/10 09:01:28;;;;;;;22.13;10.30;;;1.40;99.90;;;;;;5002832;28;20228;-47
2021/01/10 09:03:59;;;;;;;18.27;9.67;;;1.50;99.90;;;;;;5025989;28;20811;-47
2021/01/10 09:06:56;;;;;;;20.30;9.60;;;1.40;99.90;;;;;;5012082;28;21010;-46
2021/01/10 09:09:31;;;;;;;19.47;10.10;;;1.50;99.90;;;;;;5017784;28;20168;-48
2021/01/10 09:12:22;;;;;;;20.83;10.63;;;1.50;99.90;;;;;;5018999;28;20214;-47
2021/01/10 09:14:57;;;;;;;18.67;9.97;;;1.50;99.90;;;;;;5026021;28;20191;-48
2021/01/10 09:17:46;;;;;;;21.57;10.43;;;1.50;99.90;;;;;;5002310;28;20184;-46
2021/01/10 09:20:25;;;;;;;20.87;10.40;;;1.60;99.90;;;;;;5011270;28;20184;-50
2021/01/10 09:22:51;;;;;;;19.37;9.90;;;1.70;99.90;;;;;;5021594;28;20286;-46
2021/01/10 09:25:18;;;;;;;19.33;10.43;;;1.70;99.90;;;;;;5021473;28;20895;-52
2021/01/10 09:28:16;;;;;;;21.73;10.00;;;1.80;99.90;;;;;;5021903;28;20200;-51
2021/01/10 09:30:54;;;;;;;15.87;9.40;;;1.90;99.90;;;;;;5019878;28;20203;-48
2021/01/10 09:33:28;;;;;;;15.07;9.33;;;1.90;99.90;;;;;;4985278;28;20313;-46
2021/01/10 09:35:55;;;;;;;16.80;8.73;;;2.00;99.90;;;;;;5014559;28;20216;-50
2021/01/10 09:38:23;;;;;;;19.73;9.73;;;2.00;99.90;;;;;;5014181;28;20219;-50
2021/01/10 09:41:05;;;;;;;15.50;9.40;;;2.00;99.90;;;;;;5019724;28;20216;-51
2021/01/10 09:43:52;;;;;;;16.70;10.00;;;2.10;99.90;;;;;;5012126;28;20194;-47
2021/01/10 09:46:31;;;;;;;13.77;8.37;;;2.10;99.90;;;;;;5010342;28;20172;-47
2021/01/10 09:49:05;;;;;;;16.47;10.00;;;2.20;99.90;;;;;;5006747;28;20192;-54
2021/01/10 09:51:55;;;;;;;16.60;8.77;;;2.20;99.90;;;;;;5014053;28;20229;-48
2021/01/10 09:54:25;;;;;;;15.13;9.10;;;2.20;99.90;;;;;;5007736;28;20903;-46
2021/01/10 09:57:14;;;;;;;14.23;9.20;;;2.30;99.90;;;;;;5025308;28;20207;-45
2021/01/10 09:59:43;;;;;;;15.83;8.63;;;2.30;99.90;;;;;;5008884;28;20620;-46
2021/01/10 10:02:25;;;;;;;14.37;7.87;;;2.30;99.90;;;;;;5012881;28;20250;-54
2021/01/10 10:04:53;;;;;;;15.70;8.53;;;2.30;99.90;;;;;;5020788;28;20898;-46
2021/01/10 10:07:33;;;;;;;17.80;10.03;;;2.30;99.90;;;;;;5008323;28;20269;-45
2021/01/10 10:09:59;;;;;;;18.97;8.93;;;2.40;99.90;;;;;;5018683;28;20179;-54
2021/01/10 10:12:25;;;;;;;16.13;8.97;;;2.40;99.90;;;;;;5006971;28;20220;-46
2021/01/10 10:14:53;;;;;;;17.90;8.97;;;2.50;99.90;;;;;;5014001;28;20207;-53
2021/01/10 10:17:20;;;;;;;15.50;9.03;;;2.50;99.90;;;;;;5018267;28;20204;-46
2021/01/10 10:19:46;;;;;;;18.33;9.57;;;2.50;99.90;;;;;;5011401;28;20218;-49
2021/01/10 10:22:22;;;;;;;19.40;9.73;;;2.50;99.90;;;;;;5015377;28;20230;-50
2021/01/10 10:24:47;;;;;;;19.60;9.20;;;2.50;99.90;;;;;;5024410;28;20176;-46
2021/01/10 10:27:13;;;;;;;18.23;9.33;;;2.60;99.90;;;;;;5020325;28;20176;-50
2021/01/10 10:29:38;;;;;;;19.40;10.00;;;2.60;99.90;;;;;;5016312;28;20188;-47
2021/01/10 10:32:04;;;;;;;17.80;9.10;;;2.70;99.90;;;;;;5021188;28;20695;-55
2021/01/10 10:34:30;;;;;;;18.90;9.90;;;2.70;99.90;;;;;;5008980;28;20192;-50
2021/01/10 10:36:57;;;;;;;17.37;9.60;;;2.80;99.90;;;;;;5017991;28;20211;-55
2021/01/10 10:39:23;;;;;;;18.40;9.90;;;2.80;99.90;;;;;;5011700;28;20172;-45
2021/01/10 10:41:48;;;;;;;15.17;8.80;;;2.80;99.90;;;;;;5014212;28;20604;-55
2021/01/10 10:44:14;;;;;;;21.97;10.57;;;2.80;99.90;;;;;;5005107;28;20260;-50
2021/01/10 10:46:41;;;;;;;19.20;9.40;;;2.80;99.90;;;;;;5012522;28;20169;-45
2021/01/10 10:49:06;;;;;;;19.60;9.83;;;2.90;99.90;;;;;;5011106;28;20180;-56
2021/01/10 10:51:32;;;;;;;22.07;10.13;;;2.90;99.90;;;;;;5003842;28;20216;-49
2021/01/10 10:53:57;;;;;;;18.80;10.03;;;2.90;99.90;;;;;;5010810;28;20187;-55
2021/01/10 10:56:24;;;;;;;17.23;9.17;;;3.00;99.90;;;;;;5012816;28;20196;-46
2021/01/10 10:58:50;;;;;;;18.93;9.93;;;3.00;99.90;;;;;;5023173;28;20219;-54
2021/01/10 11:01:15;;;;;;;17.77;9.83;;;3.10;99.90;;;;;;5012423;28;20939;-46
2021/01/10 11:03:41;;;;;;;16.77;10.20;;;3.20;99.90;;;;;;5023926;28;20180;-49
2021/01/10 11:06:06;;;;;;;16.23;9.40;;;3.30;99.90;;;;;;5009295;28;20214;-54
2021/01/10 11:08:32;;;;;;;18.50;10.50;;;3.40;99.90;;;;;;5009689;28;20188;-48
2021/01/10 11:10:57;;;;;;;17.67;9.20;;;3.40;99.90;;;;;;5005101;28;20542;-53
2021/01/10 11:13:23;;;;;;;19.90;9.30;;;3.40;99.90;;;;;;5020700;28;20283;-46
2021/01/10 11:15:48;;;;;;;15.90;9.13;;;3.50;99.90;;;;;;5020237;28;20204;-47
2021/01/10 11:18:13;;;;;;;17.23;9.10;;;3.50;99.90;;;;;;5015383;28;20176;-46
2021/01/10 11:20:39;;;;;;;17.90;10.07;;;3.50;99.90;;;;;;5017528;28;20184;-45
2021/01/10 11:23:04;;;;;;;20.70;10.10;;;3.60;99.90;;;;;;5001874;28;20212;-52
2021/01/10 11:25:30;;;;;;;17.93;9.37;;;3.60;99.90;;;;;;5014939;28;20251;-47
2021/01/10 11:27:55;;;;;;;18.37;9.60;;;3.70;99.90;;;;;;5012167;28;20259;-53
2021/01/10 11:30:21;;;;;;;18.60;10.10;;;3.70;99.90;;;;;;5009001;28;20275;-48
2021/01/10 11:32:47;;;;;;;16.73;9.93;;;3.70;99.90;;;;;;5019683;28;20265;-48
2021/01/10 11:35:13;;;;;;;18.43;9.77;;;3.70;99.90;;;;;;5015040;28;20172;-47
2021/01/10 11:37:38;;;;;;;19.83;9.83;;;3.70;99.90;;;;;;5013783;28;20256;-47
2021/01/10 11:40:04;;;;;;;18.90;9.97;;;3.60;99.90;;;;;;5001704;28;20272;-56
2021/01/10 11:42:30;;;;;;;20.13;10.63;;;3.60;99.90;;;;;;5016613;28;20219;-47
2021/01/10 11:44:55;;;;;;;17.03;8.37;;;3.60;99.90;;;;;;5012858;28;20181;-54
2021/01/10 11:47:23;;;;;;;23.17;9.93;;;3.60;99.90;;;;;;5014176;28;20840;-45
2021/01/10 11:49:48;;;;;;;23.87;10.13;;;3.70;99.90;;;;;;5020047;28;20173;-53
2021/01/10 11:52:14;;;;;;;19.40;10.00;;;3.70;99.90;;;;;;5019168;28;20742;-45
2021/01/10 11:54:39;;;;;;;20.83;10.43;;;3.70;99.90;;;;;;5005385;28;20781;-46
2021/01/10 11:57:05;;;;;;;17.00;8.67;;;3.70;99.90;;;;;;5014903;28;20253;-55
2021/01/10 11:59:30;;;;;;;20.50;10.30;;;3.80;99.90;;;;;;5016717;28;20649;-47
2021/01/10 12:01:56;;;;;;;21.57;11.40;;;3.80;99.90;;;;;;5009622;28;20295;-54
2021/01/10 12:04:21;;;;;;;22.47;10.93;;;3.80;99.90;;;;;;5013078;28;20188;-46
2021/01/10 12:06:47;;;;;;;18.53;9.97;;;3.90;99.90;;;;;;5020720;28;20255;-48
2021/01/10 12:09:13;;;;;;;17.43;9.40;;;3.90;99.90;;;;;;5001438;28;20982;-47
2021/01/10 12:11:39;;;;;;;17.80;10.83;;;3.90;99.90;;;;;;5018248;28;20551;-51
2021/01/10 12:14:05;;;;;;;20.87;10.40;;;3.90;99.90;;;;;;5019768;28;20190;-53
2021/01/10 12:16:31;;;;;;;19.83;10.23;;;4.00;99.90;;;;;;5019056;28;20200;-48
2021/01/10 12:18:56;;;;;;;18.83;10.50;;;4.00;99.90;;;;;;5017169;28;20188;-55
2021/01/10 12:21:22;;;;;;;17.40;10.00;;;4.00;99.90;;;;;;5020880;28;20195;-45
2021/01/10 12:23:47;;;;;;;20.73;10.63;;;4.00;99.90;;;;;;5022731;28;20199;-47
2021/01/10 12:26:14;;;;;;;18.63;9.60;;;4.00;99.90;;;;;;4999423;28;20952;-47
2021/01/10 12:28:41;;;;;;;23.37;10.27;;;4.00;99.90;;;;;;5014588;28;20196;-46
2021/01/10 12:31:07;;;;;;;17.53;9.60;;;4.10;99.90;;;;;;5013986;28;20176;-56
2021/01/10 12:33:33;;;;;;;23.40;10.33;;;4.10;99.90;;;;;;5018666;28;20191;-47
2021/01/10 12:35:59;;;;;;;20.77;10.27;;;4.00;99.90;;;;;;5017016;28;20219;-51
2021/01/10 12:38:25;;;;;;;17.90;9.50;;;3.90;99.90;;;;;;5020202;28;20168;-47
2021/01/10 12:40:50;;;;;;;17.93;9.83;;;3.90;99.90;;;;;;5002646;28;20188;-55
2021/01/10 12:43:16;;;;;;;19.63;9.70;;;3.80;99.90;;;;;;5011729;28;20196;-49
2021/01/10 12:45:41;;;;;;;18.90;10.33;;;3.80;99.90;;;;;;5007005;28;20659;-48
2021/01/10 12:48:07;;;;;;;20.17;10.30;;;3.80;99.90;;;;;;5012625;28;20196;-57